createdAt,value
2022-10-22T00:00:00.380Z,10.68
2022-10-22T00:01:00.511Z,10.68
2022-10-22T00:02:00.659Z,10.68
2022-10-22T00:03:00.888Z,10.66
2022-10-22T00:04:00.955Z,10.66
2022-10-22T00:05:01.125Z,10.66
2022-10-22T00:06:01.254Z,10.65
2022-10-22T00:07:00.403Z,10.65
2022-10-22T00:08:00.540Z,10.65
2022-10-22T00:09:00.746Z,10.66
2022-10-22T00:10:00.856Z,10.66
2022-10-22T00:11:00.991Z,10.67
2022-10-22T00:12:01.132Z,10.67
2022-10-22T00:13:00.284Z,10.67
2022-10-22T00:14:00.431Z,10.67
2022-10-22T00:15:00.594Z,10.67
2022-10-22T00:16:00.744Z,10.67
2022-10-22T00:17:00.859Z,10.67
2022-10-22T00:18:01.002Z,10.67
2022-10-22T00:19:01.141Z,10.66
2022-10-22T00:20:00.283Z,10.66
2022-10-22T00:21:00.461Z,10.67
2022-10-22T00:22:00.595Z,10.67
2022-10-22T00:23:00.732Z,10.66
2022-10-22T00:24:00.879Z,10.64
2022-10-22T00:25:01.035Z,10.64
2022-10-22T00:26:01.196Z,10.65
2022-10-22T00:27:00.326Z,10.67
2022-10-22T00:28:00.490Z,10.68
2022-10-22T00:29:00.631Z,10.69
2022-10-22T00:30:00.781Z,10.7
2022-10-22T00:31:00.939Z,10.69
2022-10-22T00:32:01.074Z,10.7
2022-10-22T00:33:01.219Z,10.71
2022-10-22T00:34:00.368Z,10.72
2022-10-22T00:35:00.503Z,10.74
2022-10-22T00:36:00.673Z,10.75
2022-10-22T00:37:00.820Z,10.75
2022-10-22T00:38:00.932Z,10.78
2022-10-22T00:39:01.084Z,10.78
2022-10-22T00:40:01.230Z,10.8
2022-10-22T00:42:00.556Z,10.82
2022-10-22T00:43:00.672Z,10.85
2022-10-22T00:44:00.833Z,10.87
2022-10-22T00:45:00.984Z,10.9
2022-10-22T00:46:01.128Z,10.93
2022-10-22T00:47:00.284Z,10.94
2022-10-22T00:48:00.429Z,10.95
2022-10-22T00:49:00.574Z,10.96
2022-10-22T00:50:00.753Z,10.97
2022-10-22T00:51:00.863Z,10.99
2022-10-22T00:52:01.013Z,11.03
2022-10-22T00:53:01.179Z,11.04
2022-10-22T00:54:00.293Z,11.05
2022-10-22T00:55:00.441Z,11.08
2022-10-22T00:56:00.594Z,11.12
2022-10-22T00:57:00.741Z,11.15
2022-10-22T00:58:00.909Z,11.17
2022-10-22T00:59:01.092Z,11.22
2022-10-22T01:00:01.179Z,11.25
2022-10-22T01:01:00.365Z,11.28
2022-10-22T01:02:00.462Z,11.3
2022-10-22T01:03:00.629Z,11.31
2022-10-22T01:04:00.750Z,11.32
2022-10-22T01:05:00.910Z,11.34
2022-10-22T01:06:01.055Z,11.34
2022-10-22T01:07:01.194Z,11.34
2022-10-22T01:08:00.476Z,11.32
2022-10-22T01:09:00.564Z,11.31
2022-10-22T01:10:00.642Z,11.3
2022-10-22T01:11:00.820Z,11.3
2022-10-22T01:12:00.949Z,11.3
2022-10-22T01:13:01.105Z,11.29
2022-10-22T01:14:00.251Z,11.3
2022-10-22T01:15:00.395Z,11.31
2022-10-22T01:16:00.558Z,11.32
2022-10-22T01:17:00.679Z,11.36
2022-10-22T01:18:00.839Z,11.41
2022-10-22T01:19:01.006Z,11.45
2022-10-22T01:20:01.136Z,11.48
2022-10-22T01:21:00.318Z,11.52
2022-10-22T01:22:00.444Z,11.55
2022-10-22T01:23:00.594Z,11.58
2022-10-22T01:24:00.728Z,11.62
2022-10-22T01:25:00.884Z,11.69
2022-10-22T01:26:01.046Z,11.7
2022-10-22T01:27:01.176Z,11.76
2022-10-22T01:28:00.331Z,11.83
2022-10-22T01:29:00.466Z,11.89
2022-10-22T01:30:00.624Z,11.94
2022-10-22T01:31:00.799Z,11.99
2022-10-22T01:32:00.916Z,12.04
2022-10-22T01:33:01.064Z,12.07
2022-10-22T01:34:01.221Z,12.11
2022-10-22T01:35:00.365Z,12.14
2022-10-22T01:36:00.534Z,12.18
2022-10-22T01:37:00.668Z,12.21
2022-10-22T01:38:00.827Z,12.25
2022-10-22T01:39:00.975Z,12.26
2022-10-22T01:40:01.123Z,12.28
2022-10-22T01:41:00.304Z,12.3
2022-10-22T01:42:00.435Z,12.31
2022-10-22T01:43:00.571Z,12.32
2022-10-22T01:44:00.724Z,12.33
2022-10-22T01:45:00.858Z,12.34
2022-10-22T01:46:01.023Z,12.35
2022-10-22T01:47:01.152Z,12.37
2022-10-22T01:48:00.301Z,12.38
2022-10-22T01:49:00.440Z,12.38
2022-10-22T01:50:00.599Z,12.4
2022-10-22T01:51:00.772Z,12.41
2022-10-22T01:52:00.897Z,12.41
2022-10-22T01:53:01.029Z,12.42
2022-10-22T01:54:01.185Z,12.43
2022-10-22T01:55:00.338Z,12.44
2022-10-22T01:56:00.511Z,12.43
2022-10-22T01:57:00.636Z,12.44
2022-10-22T01:58:00.773Z,12.45
2022-10-22T01:59:00.936Z,12.46
2022-10-22T02:00:01.084Z,12.47
2022-10-22T02:01:01.364Z,12.47
2022-10-22T02:02:00.376Z,12.47
2022-10-22T02:03:00.537Z,12.47
2022-10-22T02:04:00.684Z,12.47
2022-10-22T02:05:00.820Z,12.46
2022-10-22T02:06:01.010Z,12.46
2022-10-22T02:07:01.116Z,12.46
2022-10-22T02:08:00.261Z,12.45
2022-10-22T02:09:00.572Z,12.45
2022-10-22T02:10:00.559Z,12.46
2022-10-22T02:11:00.712Z,12.47
2022-10-22T02:12:00.929Z,12.47
2022-10-22T02:13:01.010Z,12.48
2022-10-22T02:14:01.163Z,12.48
2022-10-22T02:15:00.300Z,12.48
2022-10-22T02:16:00.479Z,12.48
2022-10-22T02:17:00.599Z,12.48
2022-10-22T02:18:00.748Z,12.48
2022-10-22T02:19:00.927Z,12.48
2022-10-22T02:20:01.036Z,12.49
2022-10-22T02:21:01.252Z,12.5
2022-10-22T02:22:00.329Z,12.5
2022-10-22T02:23:00.489Z,12.5
2022-10-22T02:24:00.643Z,12.5
2022-10-22T02:25:00.783Z,12.5
2022-10-22T02:26:00.950Z,12.52
2022-10-22T02:27:01.102Z,12.52
2022-10-22T02:28:01.241Z,12.52
2022-10-22T02:29:00.385Z,12.53
2022-10-22T02:30:00.576Z,12.55
2022-10-22T02:31:00.679Z,12.57
2022-10-22T02:32:00.848Z,12.59
2022-10-22T02:33:00.978Z,12.59
2022-10-22T02:34:01.218Z,12.6
2022-10-22T02:35:00.258Z,12.61
2022-10-22T02:36:00.403Z,12.63
2022-10-22T02:37:00.590Z,12.65
2022-10-22T02:38:00.699Z,12.66
2022-10-22T02:39:00.850Z,12.67
2022-10-22T02:40:00.991Z,12.67
2022-10-22T02:41:01.142Z,12.69
2022-10-22T02:42:00.305Z,12.7
2022-10-22T02:43:00.458Z,12.71
2022-10-22T02:44:00.589Z,12.71
2022-10-22T02:45:00.733Z,12.72
2022-10-22T02:46:00.882Z,12.72
2022-10-22T02:47:01.025Z,12.72
2022-10-22T02:48:01.207Z,12.73
2022-10-22T02:49:00.333Z,12.73
2022-10-22T02:50:00.483Z,12.74
2022-10-22T02:51:00.638Z,12.76
2022-10-22T02:52:00.776Z,12.77
2022-10-22T02:53:00.958Z,12.77
2022-10-22T02:54:01.107Z,12.78
2022-10-22T02:55:01.247Z,12.79
2022-10-22T02:56:00.396Z,12.8
2022-10-22T02:57:00.540Z,12.8
2022-10-22T02:58:00.683Z,12.81
2022-10-22T02:59:00.850Z,12.81
2022-10-22T03:00:00.978Z,12.82
2022-10-22T03:01:01.215Z,12.82
2022-10-22T03:02:00.268Z,12.82
2022-10-22T03:03:00.428Z,12.81
2022-10-22T03:04:00.617Z,12.82
2022-10-22T03:05:00.726Z,12.82
2022-10-22T03:06:00.869Z,12.82
2022-10-22T03:07:01.019Z,12.82
2022-10-22T03:08:01.170Z,12.82
2022-10-22T03:09:00.478Z,12.82
2022-10-22T03:10:00.476Z,12.82
2022-10-22T03:11:00.620Z,12.84
2022-10-22T03:12:00.780Z,12.84
2022-10-22T03:13:00.900Z,12.85
2022-10-22T03:14:01.075Z,12.86
2022-10-22T03:15:01.210Z,12.87
2022-10-22T03:16:00.356Z,12.87
2022-10-22T03:17:00.505Z,12.88
2022-10-22T03:18:00.651Z,12.88
2022-10-22T03:19:00.821Z,12.89
2022-10-22T03:20:00.958Z,12.89
2022-10-22T03:21:01.104Z,12.89
2022-10-22T03:22:01.242Z,12.9
2022-10-22T03:23:00.380Z,12.9
2022-10-22T03:24:00.554Z,12.91
2022-10-22T03:25:00.694Z,12.91
2022-10-22T03:26:00.828Z,12.91
2022-10-22T03:27:00.972Z,12.92
2022-10-22T03:28:01.117Z,12.91
2022-10-22T03:29:00.267Z,12.92
2022-10-22T03:30:00.426Z,12.92
2022-10-22T03:31:00.555Z,12.93
2022-10-22T03:32:00.705Z,12.93
2022-10-22T03:33:00.855Z,12.93
2022-10-22T03:34:01.009Z,12.93
2022-10-22T03:35:01.186Z,12.93
2022-10-22T03:36:00.277Z,12.93
2022-10-22T03:37:00.433Z,12.93
2022-10-22T03:38:00.589Z,12.93
2022-10-22T03:39:00.737Z,12.93
2022-10-22T03:40:00.902Z,12.92
2022-10-22T03:41:01.021Z,12.91
2022-10-22T03:42:01.174Z,12.91
2022-10-22T03:43:00.325Z,12.9
2022-10-22T03:44:00.460Z,12.9
2022-10-22T03:45:00.641Z,12.89
2022-10-22T03:46:00.768Z,12.88
2022-10-22T03:47:02.624Z,12.87
2022-10-22T03:48:01.070Z,12.86
2022-10-22T03:49:01.221Z,12.86
2022-10-22T03:50:00.371Z,12.85
2022-10-22T03:51:00.510Z,12.84
2022-10-22T03:52:00.660Z,12.84
2022-10-22T03:53:00.813Z,12.84
2022-10-22T03:54:00.931Z,12.84
2022-10-22T03:55:01.083Z,12.82
2022-10-22T03:56:01.232Z,12.82
2022-10-22T03:57:00.370Z,12.82
2022-10-22T03:58:00.549Z,12.81
2022-10-22T03:59:00.675Z,12.82
2022-10-22T04:00:00.831Z,12.81
2022-10-22T04:01:01.059Z,12.81
2022-10-22T04:02:01.130Z,12.82
2022-10-22T04:03:00.302Z,12.82
2022-10-22T04:04:00.423Z,12.81
2022-10-22T04:05:00.625Z,12.81
2022-10-22T04:06:00.738Z,12.82
2022-10-22T04:07:00.886Z,12.81
2022-10-22T04:08:01.061Z,12.81
2022-10-22T04:09:01.292Z,12.81
2022-10-22T04:10:00.323Z,12.82
2022-10-22T04:11:00.481Z,12.82
2022-10-22T04:12:00.635Z,12.82
2022-10-22T04:13:00.806Z,12.82
2022-10-22T04:14:00.932Z,12.82
2022-10-22T04:15:01.077Z,12.82
2022-10-22T04:16:01.238Z,12.82
2022-10-22T04:17:00.416Z,12.81
2022-10-22T04:18:00.539Z,12.81
2022-10-22T04:19:00.691Z,12.81
2022-10-22T04:20:00.839Z,12.81
2022-10-22T04:21:00.982Z,12.81
2022-10-22T04:22:01.121Z,12.8
2022-10-22T04:23:00.280Z,12.8
2022-10-22T04:24:00.433Z,12.79
2022-10-22T04:25:00.597Z,12.78
2022-10-22T04:26:00.734Z,12.78
2022-10-22T04:27:00.879Z,12.77
2022-10-22T04:28:01.055Z,12.77
2022-10-22T04:29:01.160Z,12.76
2022-10-22T04:30:00.319Z,12.76
2022-10-22T04:31:00.452Z,12.74
2022-10-22T04:32:00.599Z,12.74
2022-10-22T04:33:00.751Z,12.73
2022-10-22T04:34:00.905Z,12.73
2022-10-22T04:35:01.027Z,12.72
2022-10-22T04:36:01.180Z,12.71
2022-10-22T04:37:00.329Z,12.71
2022-10-22T04:38:00.466Z,12.71
2022-10-22T04:39:00.632Z,12.71
2022-10-22T04:40:00.780Z,12.7
2022-10-22T04:41:00.918Z,12.7
2022-10-22T04:42:01.061Z,12.69
2022-10-22T04:43:01.209Z,12.69
2022-10-22T04:44:00.394Z,12.69
2022-10-22T04:45:00.510Z,12.69
2022-10-22T04:46:00.642Z,12.69
2022-10-22T04:47:00.785Z,12.7
2022-10-22T04:48:00.927Z,12.71
2022-10-22T04:49:01.078Z,12.71
2022-10-22T04:50:01.240Z,12.72
2022-10-22T04:51:00.369Z,12.72
2022-10-22T04:52:00.519Z,12.73
2022-10-22T04:53:00.671Z,12.74
2022-10-22T04:54:00.847Z,12.74
2022-10-22T04:55:01.012Z,12.75
2022-10-22T04:56:01.111Z,12.76
2022-10-22T04:57:01.252Z,12.76
2022-10-22T04:58:00.394Z,12.77
2022-10-22T04:59:00.532Z,12.78
2022-10-22T05:00:00.701Z,12.78
2022-10-22T05:01:00.910Z,12.79
2022-10-22T05:02:00.982Z,12.8
2022-10-22T05:03:01.138Z,12.8
2022-10-22T05:04:00.291Z,12.81
2022-10-22T05:05:00.438Z,12.81
2022-10-22T05:06:00.653Z,12.81
2022-10-22T05:07:00.756Z,12.81
2022-10-22T05:08:00.888Z,12.81
2022-10-22T05:09:01.141Z,12.82
2022-10-22T05:10:01.188Z,12.82
2022-10-22T05:11:00.351Z,12.84
2022-10-22T05:12:00.463Z,12.84
2022-10-22T05:13:00.611Z,12.85
2022-10-22T05:14:00.754Z,12.86
2022-10-22T05:15:00.911Z,12.86
2022-10-22T05:16:01.077Z,12.87
2022-10-22T05:17:01.199Z,12.87
2022-10-22T05:18:00.352Z,12.86
2022-10-22T05:19:00.501Z,12.86
2022-10-22T05:20:00.658Z,12.88
2022-10-22T05:21:00.849Z,12.89
2022-10-22T05:22:00.963Z,12.9
2022-10-22T05:23:01.116Z,12.9
2022-10-22T05:24:00.267Z,12.91
2022-10-22T05:25:00.422Z,12.91
2022-10-22T05:26:00.582Z,12.92
2022-10-22T05:27:00.718Z,12.92
2022-10-22T05:28:00.868Z,12.93
2022-10-22T05:29:01.016Z,12.93
2022-10-22T05:30:01.170Z,12.94
2022-10-22T05:31:00.332Z,12.95
2022-10-22T05:32:00.490Z,12.96
2022-10-22T05:33:00.636Z,12.96
2022-10-22T05:34:00.760Z,12.97
2022-10-22T05:35:00.909Z,12.99
2022-10-22T05:36:01.058Z,12.99
2022-10-22T05:37:01.195Z,12.99
2022-10-22T05:38:00.370Z,12.99
2022-10-22T05:39:00.516Z,12.99
2022-10-22T05:40:12.477Z,12.99
2022-10-22T05:41:00.800Z,12.99
2022-10-22T05:42:00.956Z,12.97
2022-10-22T05:43:01.111Z,12.99
2022-10-22T05:44:00.285Z,12.99
2022-10-22T05:45:00.403Z,12.99
2022-10-22T05:46:00.553Z,13
2022-10-22T05:47:00.709Z,13
2022-10-22T05:48:00.839Z,12.99
2022-10-22T05:49:01.017Z,12.97
2022-10-22T05:50:01.134Z,12.99
2022-10-22T05:51:00.277Z,12.99
2022-10-22T05:52:00.431Z,12.99
2022-10-22T05:53:00.578Z,12.99
2022-10-22T05:54:00.743Z,12.97
2022-10-22T05:55:00.858Z,12.97
2022-10-22T05:56:01.004Z,12.99
2022-10-22T05:57:01.147Z,12.99
2022-10-22T05:58:00.297Z,12.99
2022-10-22T05:59:00.524Z,13
2022-10-22T06:00:00.578Z,13
2022-10-22T06:01:00.725Z,13
2022-10-22T06:02:00.960Z,13.01
2022-10-22T06:03:01.033Z,13.01
2022-10-22T06:04:01.200Z,13.02
2022-10-22T06:05:00.357Z,13.02
2022-10-22T06:06:00.479Z,13.03
2022-10-22T06:07:00.618Z,13.05
2022-10-22T06:08:00.773Z,13.05
2022-10-22T06:09:01.015Z,13.09
2022-10-22T06:10:01.095Z,13.11
2022-10-22T06:11:01.249Z,13.14
2022-10-22T06:12:00.409Z,13.15
2022-10-22T06:13:00.535Z,13.16
2022-10-22T06:14:00.678Z,13.16
2022-10-22T06:15:00.838Z,13.16
2022-10-22T06:16:00.998Z,13.17
2022-10-22T06:17:01.155Z,13.17
2022-10-22T06:18:00.271Z,13.17
2022-10-22T06:19:00.415Z,13.16
2022-10-22T06:20:00.649Z,13.16
2022-10-22T06:21:00.701Z,13.16
2022-10-22T06:22:00.874Z,13.15
2022-10-22T06:23:01.030Z,13.14
2022-10-22T06:24:01.159Z,13.12
2022-10-22T06:25:00.297Z,13.11
2022-10-22T06:26:00.442Z,13.11
2022-10-22T06:27:00.600Z,13.1
2022-10-22T06:28:00.767Z,13.09
2022-10-22T06:29:00.890Z,13.06
2022-10-22T06:30:01.048Z,13.05
2022-10-22T06:31:01.195Z,13.05
2022-10-22T06:32:00.332Z,13.04
2022-10-22T06:33:00.511Z,13.03
2022-10-22T06:34:00.641Z,13.01
2022-10-22T06:35:00.793Z,13
2022-10-22T06:36:04.056Z,12.97
2022-10-22T06:37:01.080Z,12.96
2022-10-22T06:38:01.288Z,12.95
2022-10-22T06:39:00.397Z,12.93
2022-10-22T06:40:00.548Z,12.91
2022-10-22T06:41:00.692Z,12.9
2022-10-22T06:42:00.852Z,12.89
2022-10-22T06:43:01.023Z,12.88
2022-10-22T06:44:01.152Z,12.87
2022-10-22T06:45:03.012Z,12.86
2022-10-22T06:46:00.452Z,12.85
2022-10-22T06:47:00.602Z,12.84
2022-10-22T06:48:00.761Z,12.82
2022-10-22T06:49:00.895Z,12.81
2022-10-22T06:50:01.017Z,12.8
2022-10-22T06:51:01.130Z,12.79
2022-10-22T06:52:00.276Z,12.78
2022-10-22T06:53:00.438Z,12.77
2022-10-22T06:54:00.603Z,12.76
2022-10-22T06:55:00.732Z,12.76
2022-10-22T06:56:00.885Z,12.76
2022-10-22T06:57:01.054Z,12.76
2022-10-22T06:58:01.217Z,12.76
2022-10-22T06:59:00.377Z,12.75
2022-10-22T07:00:00.520Z,12.75
2022-10-22T07:01:00.730Z,12.75
2022-10-22T07:02:00.803Z,12.75
2022-10-22T07:03:00.964Z,12.74
2022-10-22T07:04:01.110Z,12.74
2022-10-22T07:05:01.273Z,12.74
2022-10-22T07:06:00.397Z,12.74
2022-10-22T07:07:00.539Z,12.74
2022-10-22T07:08:00.686Z,12.74
2022-10-22T07:09:01.034Z,12.73
2022-10-22T07:10:01.006Z,12.73
2022-10-22T07:11:01.139Z,12.72
2022-10-22T07:12:00.276Z,12.71
2022-10-22T07:13:00.418Z,12.71
2022-10-22T07:14:00.577Z,12.7
2022-10-22T07:15:00.738Z,12.69
2022-10-22T07:16:00.893Z,12.69
2022-10-22T07:17:01.021Z,12.67
2022-10-22T07:18:01.158Z,12.67
2022-10-22T07:19:00.299Z,12.67
2022-10-22T07:20:00.460Z,12.66
2022-10-22T07:21:00.615Z,12.65
2022-10-22T07:22:00.767Z,12.65
2022-10-22T07:23:00.936Z,12.64
2022-10-22T07:24:01.042Z,12.64
2022-10-22T07:25:05.213Z,12.64
2022-10-22T07:26:00.340Z,12.64
2022-10-22T07:27:00.488Z,12.63
2022-10-22T07:28:00.664Z,12.63
2022-10-22T07:29:00.814Z,12.62
2022-10-22T07:30:00.957Z,12.62
2022-10-22T07:31:01.096Z,12.62
2022-10-22T07:32:01.247Z,12.62
2022-10-22T07:33:00.415Z,12.61
2022-10-22T07:34:00.529Z,12.61
2022-10-22T07:35:00.685Z,12.61
2022-10-22T07:36:00.840Z,12.62
2022-10-22T07:37:00.985Z,12.61
2022-10-22T07:38:01.168Z,12.62
2022-10-22T07:39:00.294Z,12.63
2022-10-22T07:40:03.712Z,12.62
2022-10-22T07:41:00.575Z,12.63
2022-10-22T07:42:00.729Z,12.62
2022-10-22T07:43:00.890Z,12.62
2022-10-22T07:44:01.027Z,12.62
2022-10-22T07:45:01.180Z,12.63
2022-10-22T07:46:00.314Z,12.62
2022-10-22T07:47:00.462Z,12.62
2022-10-22T07:48:00.621Z,12.62
2022-10-22T07:49:00.755Z,12.61
2022-10-22T07:50:00.927Z,12.6
2022-10-22T07:51:01.057Z,12.6
2022-10-22T07:52:01.195Z,12.6
2022-10-22T07:53:00.365Z,12.6
2022-10-22T07:54:00.488Z,12.62
2022-10-22T07:55:00.641Z,12.63
2022-10-22T07:56:00.800Z,12.63
2022-10-22T07:57:00.953Z,12.63
2022-10-22T07:58:01.123Z,12.63
2022-10-22T08:00:00.391Z,12.63
2022-10-22T08:01:00.598Z,12.63
2022-10-22T08:02:00.695Z,12.63
2022-10-22T08:03:00.857Z,12.64
2022-10-22T08:04:00.992Z,12.64
2022-10-22T08:05:01.141Z,12.63
2022-10-22T08:06:00.280Z,12.63
2022-10-22T08:07:00.437Z,12.62
2022-10-22T08:08:00.595Z,12.63
2022-10-22T08:09:00.780Z,12.62
2022-10-22T08:10:00.872Z,12.62
2022-10-22T08:11:01.025Z,12.6
2022-10-22T08:12:01.164Z,12.6
2022-10-22T08:13:00.311Z,12.6
2022-10-22T08:14:00.483Z,12.61
2022-10-22T08:15:00.629Z,12.62
2022-10-22T08:16:00.842Z,12.63
2022-10-22T08:17:00.912Z,12.64
2022-10-22T08:18:01.052Z,12.65
2022-10-22T08:19:01.205Z,12.66
2022-10-22T08:20:00.379Z,12.67
2022-10-22T08:21:00.496Z,12.69
2022-10-22T08:22:00.644Z,12.71
2022-10-22T08:23:00.782Z,12.72
2022-10-22T08:24:00.970Z,12.72
2022-10-22T08:25:01.078Z,12.74
2022-10-22T08:26:01.231Z,12.76
2022-10-22T08:27:00.361Z,12.77
2022-10-22T08:28:00.513Z,12.77
2022-10-22T08:29:00.654Z,12.76
2022-10-22T08:30:00.796Z,12.75
2022-10-22T08:31:00.964Z,12.74
2022-10-22T08:32:01.089Z,12.73
2022-10-22T08:33:01.234Z,12.72
2022-10-22T08:34:00.376Z,12.73
2022-10-22T08:35:00.531Z,12.72
2022-10-22T08:36:00.698Z,12.72
2022-10-22T08:37:00.831Z,12.73
2022-10-22T08:38:00.973Z,12.74
2022-10-22T08:39:01.120Z,12.75
2022-10-22T08:40:00.288Z,12.76
2022-10-22T08:41:00.418Z,12.77
2022-10-22T08:42:00.555Z,12.78
2022-10-22T08:43:00.701Z,12.8
2022-10-22T08:44:00.858Z,12.81
2022-10-22T08:45:01.017Z,12.82
2022-10-22T08:46:01.140Z,12.84
2022-10-22T08:47:00.282Z,12.86
2022-10-22T08:48:00.430Z,12.88
2022-10-22T08:49:00.623Z,12.9
2022-10-22T08:50:00.748Z,12.93
2022-10-22T08:51:00.874Z,12.95
2022-10-22T08:52:01.009Z,12.97
2022-10-22T08:53:01.153Z,12.99
2022-10-22T08:54:00.308Z,13.01
2022-10-22T08:55:00.482Z,13.05
2022-10-22T08:56:00.604Z,13.05
2022-10-22T08:57:00.746Z,13.1
2022-10-22T08:58:00.897Z,13.14
2022-10-22T08:59:01.049Z,13.17
2022-10-22T09:00:01.225Z,13.2
2022-10-22T09:01:00.351Z,13.22
2022-10-22T09:02:00.494Z,13.22
2022-10-22T09:03:00.634Z,13.24
2022-10-22T09:04:00.782Z,13.26
2022-10-22T09:05:00.952Z,13.3
2022-10-22T09:06:01.105Z,13.33
2022-10-22T09:07:01.240Z,13.36
2022-10-22T09:08:00.388Z,13.38
2022-10-22T09:09:00.598Z,13.4
2022-10-22T09:10:00.686Z,13.43
2022-10-22T09:11:00.868Z,13.46
2022-10-22T09:12:00.984Z,13.48
2022-10-22T09:13:01.136Z,13.51
2022-10-22T09:14:00.275Z,13.59
2022-10-22T09:15:00.445Z,13.64
2022-10-22T09:16:00.597Z,13.66
2022-10-22T09:17:00.752Z,13.73
2022-10-22T09:18:00.891Z,13.76
2022-10-22T09:19:01.024Z,13.77
2022-10-22T09:20:01.158Z,13.8
2022-10-22T09:21:00.315Z,13.82
2022-10-22T09:22:00.542Z,13.82
2022-10-22T09:23:00.617Z,13.83
2022-10-22T09:24:00.771Z,13.85
2022-10-22T09:25:00.932Z,13.86
2022-10-22T09:26:01.074Z,13.89
2022-10-22T09:27:01.240Z,13.89
2022-10-22T09:28:00.369Z,13.9
2022-10-22T09:29:00.506Z,13.91
2022-10-22T09:30:00.658Z,13.91
2022-10-22T09:31:00.814Z,13.91
2022-10-22T09:32:00.984Z,13.93
2022-10-22T09:33:01.112Z,13.93
2022-10-22T09:34:01.258Z,13.95
2022-10-22T09:35:00.408Z,13.96
2022-10-22T09:36:00.545Z,13.98
2022-10-22T09:37:00.724Z,14
2022-10-22T09:38:00.853Z,14.03
2022-10-22T09:39:00.986Z,14.07
2022-10-22T09:40:01.133Z,14.1
2022-10-22T09:41:00.282Z,14.14
2022-10-22T09:42:00.446Z,14.18
2022-10-22T09:43:00.569Z,14.21
2022-10-22T09:44:00.716Z,14.26
2022-10-22T09:45:00.861Z,14.3
2022-10-22T09:46:01.024Z,14.34
2022-10-22T09:47:01.186Z,14.37
2022-10-22T09:48:02.368Z,14.38
2022-10-22T09:49:00.445Z,14.43
2022-10-22T09:50:00.592Z,14.43
2022-10-22T09:51:00.735Z,14.44
2022-10-22T09:52:00.924Z,14.44
2022-10-22T09:53:01.070Z,14.5
2022-10-22T09:54:01.205Z,14.52
2022-10-22T09:55:00.358Z,14.54
2022-10-22T09:56:00.516Z,14.57
2022-10-22T09:57:00.646Z,14.59
2022-10-22T09:58:00.819Z,14.62
2022-10-22T09:59:00.945Z,14.62
2022-10-22T10:00:01.074Z,14.63
2022-10-22T10:01:01.228Z,14.62
2022-10-22T10:02:13.409Z,14.63
2022-10-22T10:03:00.593Z,14.6
2022-10-22T10:04:00.665Z,14.57
2022-10-22T10:05:00.810Z,14.54
2022-10-22T10:06:04.794Z,14.53
2022-10-22T10:07:01.117Z,14.53
2022-10-22T10:08:00.313Z,14.52
2022-10-22T10:09:00.520Z,14.54
2022-10-22T10:10:00.576Z,14.56
2022-10-22T10:11:00.722Z,14.58
2022-10-22T10:12:00.871Z,14.57
2022-10-22T10:13:01.045Z,14.57
2022-10-22T10:14:01.206Z,14.58
2022-10-22T10:15:00.323Z,14.6
2022-10-22T10:16:00.477Z,14.58
2022-10-22T10:17:00.614Z,14.56
2022-10-22T10:18:00.762Z,14.54
2022-10-22T10:19:00.929Z,14.53
2022-10-22T10:20:03.766Z,14.52
2022-10-22T10:21:01.283Z,14.54
2022-10-22T10:22:00.349Z,14.54
2022-10-22T10:23:00.497Z,14.53
2022-10-22T10:24:00.645Z,14.49
2022-10-22T10:25:00.818Z,14.47
2022-10-22T10:26:00.936Z,14.48
2022-10-22T10:27:01.097Z,14.47
2022-10-22T10:28:01.235Z,14.48
2022-10-22T10:29:00.379Z,14.48
2022-10-22T10:30:00.540Z,14.54
2022-10-22T10:31:00.788Z,14.64
2022-10-22T10:32:00.818Z,14.67
2022-10-22T10:33:00.985Z,14.7
2022-10-22T10:34:01.121Z,14.72
2022-10-22T10:35:00.253Z,14.71
2022-10-22T10:36:00.416Z,14.65
2022-10-22T10:37:00.552Z,14.64
2022-10-22T10:38:00.748Z,14.65
2022-10-22T10:39:00.856Z,14.66
2022-10-22T10:40:01.054Z,14.59
2022-10-22T10:41:01.148Z,14.63
2022-10-22T10:42:00.297Z,14.66
2022-10-22T10:43:00.448Z,14.68
2022-10-22T10:44:00.595Z,14.72
2022-10-22T10:45:00.778Z,14.72
2022-10-22T10:46:00.872Z,14.75
2022-10-22T10:47:01.032Z,14.82
2022-10-22T10:48:01.150Z,14.86
2022-10-22T10:49:00.309Z,14.87
2022-10-22T10:50:00.477Z,14.89
2022-10-22T10:51:00.642Z,14.86
2022-10-22T10:52:00.747Z,14.88
2022-10-22T10:53:00.891Z,14.88
2022-10-22T10:54:01.062Z,14.91
2022-10-22T10:55:01.217Z,14.92
2022-10-22T10:56:00.343Z,14.96
2022-10-22T10:57:00.478Z,14.97
2022-10-22T10:58:00.617Z,15
2022-10-22T10:59:00.749Z,14.98
2022-10-22T11:00:00.927Z,15.03
2022-10-22T11:01:01.042Z,15.08
2022-10-22T11:02:01.188Z,15.1
2022-10-22T11:03:00.340Z,15.08
2022-10-22T11:04:00.477Z,15.09
2022-10-22T11:05:00.638Z,15.12
2022-10-22T11:06:00.782Z,15.17
2022-10-22T11:07:10.970Z,15.19
2022-10-22T11:08:01.077Z,15.17
2022-10-22T11:09:01.379Z,15.17
2022-10-22T11:10:00.381Z,15.17
2022-10-22T11:11:00.591Z,15.19
2022-10-22T11:12:00.679Z,15.21
2022-10-22T11:13:00.831Z,15.22
2022-10-22T11:14:00.998Z,15.23
2022-10-22T11:15:01.136Z,15.23
2022-10-22T11:16:00.273Z,15.23
2022-10-22T11:17:00.425Z,15.23
2022-10-22T11:18:00.579Z,15.26
2022-10-22T11:19:00.756Z,15.28
2022-10-22T11:20:00.960Z,15.29
2022-10-22T11:21:01.019Z,15.3
2022-10-22T11:22:01.172Z,15.31
2022-10-22T11:23:18.799Z,15.36
2022-10-22T11:24:00.483Z,15.37
2022-10-22T11:25:00.601Z,15.38
2022-10-22T11:26:00.752Z,15.39
2022-10-22T11:27:00.896Z,15.4
2022-10-22T11:28:06.654Z,15.43
2022-10-22T11:29:01.208Z,15.46
2022-10-22T11:30:00.331Z,15.53
2022-10-22T11:31:00.577Z,15.58
2022-10-22T11:32:00.646Z,15.54
2022-10-22T11:33:00.781Z,15.55
2022-10-22T11:34:09.970Z,15.58
2022-10-22T11:35:01.094Z,15.6
2022-10-22T11:36:01.242Z,15.63
2022-10-22T11:37:00.380Z,15.68
2022-10-22T11:38:00.526Z,15.72
2022-10-22T11:39:00.690Z,15.73
2022-10-22T11:40:00.808Z,15.77
2022-10-22T11:41:00.960Z,15.8
2022-10-22T11:42:01.118Z,15.81
2022-10-22T11:43:00.259Z,15.82
2022-10-22T11:44:00.447Z,15.86
2022-10-22T11:45:00.565Z,15.82
2022-10-22T11:46:00.706Z,15.84
2022-10-22T11:47:00.851Z,15.87
2022-10-22T11:48:00.998Z,15.95
2022-10-22T11:49:01.174Z,15.99
2022-10-22T11:50:00.301Z,16.07
2022-10-22T11:51:00.460Z,16.13
2022-10-22T11:52:04.274Z,16.18
2022-10-22T11:53:00.803Z,16.24
2022-10-22T11:54:00.923Z,16.25
2022-10-22T11:55:01.083Z,16.22
2022-10-22T11:56:01.198Z,16.26
2022-10-22T11:57:00.354Z,16.26
2022-10-22T11:58:00.501Z,16.26
2022-10-22T11:59:00.640Z,16.26
2022-10-22T12:00:00.815Z,16.26
2022-10-22T12:01:00.938Z,16.26
2022-10-22T12:02:01.085Z,16.25
2022-10-22T12:03:01.232Z,16.22
2022-10-22T12:04:00.386Z,16.24
2022-10-22T12:05:00.532Z,16.24
2022-10-22T12:06:00.665Z,16.27
2022-10-22T12:07:00.826Z,16.27
2022-10-22T12:08:00.979Z,16.26
2022-10-22T12:09:01.207Z,16.26
2022-10-22T12:10:00.364Z,16.31
2022-10-22T12:11:00.421Z,16.33
2022-10-22T12:12:00.559Z,16.35
2022-10-22T12:13:00.721Z,16.4
2022-10-22T12:14:00.848Z,16.41
2022-10-22T12:15:00.998Z,16.37
2022-10-22T12:16:01.156Z,16.41
2022-10-22T12:17:00.275Z,16.42
2022-10-22T12:18:00.521Z,16.44
2022-10-22T12:19:00.559Z,16.49
2022-10-22T12:20:02.298Z,16.51
2022-10-22T12:21:00.850Z,16.55
2022-10-22T12:22:01.008Z,16.58
2022-10-22T12:23:01.160Z,16.59
2022-10-22T12:24:00.296Z,16.58
2022-10-22T12:25:00.441Z,16.59
2022-10-22T12:26:00.595Z,16.61
2022-10-22T12:27:00.743Z,16.64
2022-10-22T12:28:00.895Z,16.64
2022-10-22T12:29:01.033Z,16.65
2022-10-22T12:30:01.198Z,16.63
2022-10-22T12:31:00.321Z,16.66
2022-10-22T12:32:00.480Z,16.65
2022-10-22T12:33:00.654Z,16.66
2022-10-22T12:34:00.788Z,16.71
2022-10-22T12:35:00.935Z,16.73
2022-10-22T12:36:01.092Z,16.71
2022-10-22T12:37:01.233Z,16.73
2022-10-22T12:38:00.399Z,16.73
2022-10-22T12:39:00.527Z,16.73
2022-10-22T12:40:00.672Z,16.73
2022-10-22T12:41:00.812Z,16.76
2022-10-22T12:42:00.966Z,16.77
2022-10-22T12:43:01.210Z,16.8
2022-10-22T12:44:00.262Z,16.82
2022-10-22T12:45:00.414Z,16.84
2022-10-22T12:46:00.553Z,16.85
2022-10-22T12:47:00.706Z,16.84
2022-10-22T12:48:00.871Z,16.81
2022-10-22T12:49:00.995Z,16.81
2022-10-22T12:50:01.158Z,16.84
2022-10-22T12:51:00.285Z,16.86
2022-10-22T12:52:00.431Z,16.89
2022-10-22T12:53:00.611Z,16.9
2022-10-22T12:54:00.755Z,16.91
2022-10-22T12:55:00.890Z,16.94
2022-10-22T12:56:01.031Z,16.96
2022-10-22T12:57:01.173Z,16.94